createdAt,value
2023-07-10T00:00:24.135Z,4
2023-07-10T00:15:24.380Z,4
2023-07-10T00:30:24.107Z,4
2023-07-10T00:45:23.596Z,4
2023-07-10T01:00:23.719Z,4
2023-07-10T01:15:24.350Z,4
2023-07-10T01:30:23.777Z,4
2023-07-10T01:45:23.682Z,4
2023-07-10T02:00:24.482Z,5
2023-07-10T02:15:24.440Z,4
2023-07-10T02:30:24.179Z,3
2023-07-10T02:45:24.282Z,4
2023-07-10T03:00:24.096Z,4
2023-07-10T03:15:24.207Z,3
2023-07-10T03:30:24.065Z,4
2023-07-10T03:45:23.857Z,3
2023-07-10T04:00:24.018Z,4
2023-07-10T04:15:23.762Z,3
2023-07-10T04:30:24.179Z,4
2023-07-10T04:45:24.556Z,4
2023-07-10T05:00:23.950Z,4
2023-07-10T05:15:23.534Z,4
2023-07-10T05:30:23.729Z,5
2023-07-10T05:45:24.265Z,4
2023-07-10T06:00:24.443Z,4
2023-07-10T06:15:24.013Z,4
2023-07-10T06:30:24.371Z,3
2023-07-10T06:45:24.122Z,3
2023-07-10T07:00:23.605Z,3
2023-07-10T07:15:23.804Z,3
2023-07-10T07:30:23.593Z,4
2023-07-10T07:45:24.171Z,3
2023-07-10T08:00:24.597Z,3
2023-07-10T08:15:23.805Z,3
2023-07-10T08:30:23.726Z,3
2023-07-10T08:45:23.596Z,3
2023-07-10T09:00:23.346Z,2
2023-07-10T09:15:23.653Z,2
2023-07-10T09:30:23.973Z,2
2023-07-10T09:45:23.914Z,2
2023-07-10T10:00:23.682Z,3
2023-07-10T10:15:23.846Z,2
2023-07-10T10:30:24.397Z,4
2023-07-10T10:45:24.362Z,3
2023-07-10T11:00:23.496Z,2
2023-07-10T11:15:23.868Z,3
2023-07-10T11:30:23.847Z,3
2023-07-10T12:00:23.705Z,1
2023-07-10T12:00:33.527Z,1
2023-07-10T12:30:33.135Z,2
2023-07-10T12:30:33.180Z,2
2023-07-10T12:45:24.176Z,4
2023-07-10T13:00:24.375Z,4
2023-07-10T13:15:24.314Z,3
2023-07-10T13:30:24.619Z,3
2023-07-10T13:45:24.223Z,4
2023-07-10T14:00:23.752Z,4
2023-07-10T14:15:23.634Z,4
2023-07-10T14:30:23.782Z,4
2023-07-10T14:45:24.134Z,4
2023-07-10T15:00:24.646Z,5
2023-07-10T15:07:50.551Z,4
2023-07-10T15:16:05.018Z,5
2023-07-10T15:31:05.612Z,5
2023-07-10T15:46:04.796Z,3
2023-07-10T16:01:05.501Z,4
2023-07-10T16:16:04.713Z,3
2023-07-10T16:31:04.474Z,3
2023-07-10T16:46:05.506Z,3
2023-07-10T17:01:05.237Z,4
2023-07-10T17:16:04.712Z,3
2023-07-10T17:31:04.779Z,3
2023-07-10T17:46:04.326Z,2
2023-07-10T18:01:04.338Z,3
2023-07-10T18:16:04.084Z,3
2023-07-10T18:31:05.631Z,4
2023-07-10T18:46:05.554Z,3
2023-07-10T19:01:05.319Z,4
2023-07-10T19:16:05.597Z,4
2023-07-10T19:31:05.403Z,4
2023-07-10T19:46:05.634Z,5
2023-07-10T20:01:05.562Z,5
2023-07-10T20:16:05.374Z,6
2023-07-10T20:31:04.738Z,6
2023-07-10T20:46:05.256Z,8
2023-07-10T21:01:05.366Z,8
2023-07-10T21:16:04.811Z,9
2023-07-10T21:31:04.754Z,9
2023-07-10T21:46:05.579Z,8
2023-07-10T22:01:05.196Z,8
2023-07-10T22:16:05.875Z,9
2023-07-10T22:31:04.972Z,9
2023-07-10T22:46:05.651Z,8
2023-07-10T23:01:05.506Z,8
2023-07-10T23:16:05.861Z,9
2023-07-10T23:31:04.923Z,8
2023-07-10T23:46:05.495Z,9
